createdAt,value
2022-08-27T00:04:16.978Z,12.40
2022-08-27T00:14:23.603Z,11.70
2022-08-27T00:24:29.985Z,11.80
2022-08-27T00:34:37.284Z,12.70
2022-08-27T00:44:43.782Z,14.10
2022-08-27T00:54:52.023Z,14.30
2022-08-27T01:05:06.408Z,13.30
2022-08-27T01:15:19.993Z,12.60
2022-08-27T01:25:26.808Z,12.10
2022-08-27T01:35:34.300Z,14.20
2022-08-27T01:45:50.904Z,12.10
2022-08-27T01:55:58.288Z,13.50
2022-08-27T02:06:07.538Z,12.10
2022-08-27T02:16:14.881Z,12.70
2022-08-27T02:26:21.225Z,12.60
2022-08-27T02:36:27.598Z,14.10
2022-08-27T02:46:33.975Z,12.70
2022-08-27T02:56:40.671Z,12.80
2022-08-27T03:06:48.375Z,14.40
2022-08-27T03:16:54.740Z,14.20
2022-08-27T03:27:01.145Z,13.60
2022-08-27T03:37:07.488Z,13.50
2022-08-27T03:47:13.934Z,14.50
2022-08-27T03:57:20.289Z,14.00
2022-08-27T04:07:26.628Z,15.10
2022-08-27T04:17:33.379Z,14.20
2022-08-27T04:27:40.027Z,15.10
2022-08-27T04:37:46.403Z,16.40
2022-08-27T04:47:52.750Z,15.30
2022-08-27T04:57:59.635Z,16.00
2022-08-27T05:08:07.533Z,18.80
2022-08-27T05:18:14.612Z,17.00
2022-08-27T05:28:27.903Z,15.40
2022-08-27T05:38:35.631Z,15.50
2022-08-27T05:48:42.960Z,19.70
2022-08-27T05:59:08.940Z,16.60
2022-08-27T06:09:19.483Z,20.40
2022-08-27T06:19:25.783Z,22.60
2022-08-27T06:29:32.167Z,20.90
2022-08-27T06:39:40.595Z,20.30
2022-08-27T06:49:47.020Z,19.60
2022-08-27T06:59:53.316Z,16.60
2022-08-27T07:10:00.263Z,16.70
2022-08-27T07:20:07.387Z,23.00
2022-08-27T07:30:14.826Z,19.50
2022-08-27T07:40:21.469Z,23.60
2022-08-27T07:50:27.952Z,26.20
2022-08-27T08:00:35.071Z,27.10
2022-08-27T08:10:44.706Z,23.40
2022-08-27T08:20:58.214Z,22.30
2022-08-27T08:31:06.290Z,23.00
2022-08-27T08:41:27.762Z,21.80
2022-08-27T08:51:42.278Z,27.00
2022-08-27T09:01:50.873Z,26.70
2022-08-27T09:12:02.782Z,22.60
2022-08-27T09:22:44.513Z,21.30
2022-08-27T09:32:57.507Z,22.40
2022-08-27T09:43:23.526Z,23.20
2022-08-27T09:53:34.114Z,26.40
2022-08-27T10:03:40.523Z,22.30
2022-08-27T10:13:55.753Z,22.40
2022-08-27T10:24:33.502Z,21.70
2022-08-27T10:34:42.680Z,15.85
2022-08-27T10:45:30.958Z,16.20
2022-08-27T10:55:53.702Z,14.10
2022-08-27T11:06:03.939Z,15.00
2022-08-27T11:16:20.463Z,17.30
2022-08-27T11:26:26.754Z,11.80
2022-08-27T11:36:45.023Z,9.90
2022-08-27T11:47:09.656Z,13.60
2022-08-27T11:57:31.636Z,14.10
2022-08-27T12:07:41.683Z,12.20
2022-08-27T12:18:22.509Z,11.70
2022-08-27T12:28:29.541Z,10.50
2022-08-27T12:38:54.752Z,13.10
2022-08-27T12:49:12.765Z,12.20
2022-08-27T12:59:43.315Z,11.20
2022-08-27T13:09:49.638Z,9.70
2022-08-27T13:20:01.005Z,9.70
2022-08-27T13:30:09.877Z,12.20
2022-08-27T13:40:34.213Z,13.40
2022-08-27T13:50:49.414Z,11.70
2022-08-27T14:00:56.983Z,11.40
2022-08-27T14:11:09.193Z,14.50
2022-08-27T14:21:15.539Z,9.20
2022-08-27T14:31:23.720Z,12.30
2022-08-27T14:41:30.093Z,11.30
2022-08-27T14:51:42.094Z,13.10
2022-08-27T15:01:48.646Z,14.60
2022-08-27T15:11:55.512Z,16.20
2022-08-27T15:22:06.885Z,18.70
2022-08-27T15:32:29.756Z,21.30
2022-08-27T15:42:36.086Z,21.00
2022-08-27T15:52:42.938Z,24.20
2022-08-27T16:02:49.870Z,12.60
2022-08-27T16:12:56.250Z,15.90
2022-08-27T16:23:02.721Z,16.60
2022-08-27T16:33:10.902Z,16.60
2022-08-27T16:43:22.012Z,16.80
2022-08-27T16:53:28.623Z,13.60
2022-08-27T17:04:07.019Z,12.10
2022-08-27T17:14:11.919Z,15.40
2022-08-27T17:24:19.025Z,15.90
2022-08-27T17:34:26.724Z,15.50
2022-08-27T17:44:36.221Z,13.30
2022-08-27T17:54:45.990Z,15.70
2022-08-27T18:04:52.643Z,15.80
2022-08-27T18:15:14.522Z,16.40
2022-08-27T18:25:24.063Z,16.50
2022-08-27T18:35:32.882Z,15.60
2022-08-27T18:45:40.600Z,15.30
2022-08-27T18:55:47.613Z,15.70
2022-08-27T19:05:54.951Z,15.10
2022-08-27T19:16:05.419Z,15.60
2022-08-27T19:26:20.747Z,27.80
2022-08-27T19:36:26.045Z,17.35
2022-08-27T19:46:36.869Z,18.40
2022-08-27T19:56:43.270Z,19.60
2022-08-27T20:06:50.142Z,17.80
2022-08-27T20:16:56.495Z,19.00
2022-08-27T20:27:02.967Z,16.20
2022-08-27T20:37:09.358Z,18.70
2022-08-27T20:47:17.343Z,17.70
2022-08-27T20:57:23.687Z,18.90
2022-08-27T21:07:29.978Z,18.40
2022-08-27T21:17:36.280Z,16.50
2022-08-27T21:27:42.992Z,17.60
2022-08-27T21:37:49.358Z,17.20
2022-08-27T21:47:56.101Z,18.60
2022-08-27T21:58:02.459Z,19.50
2022-08-27T22:08:09.070Z,17.10
2022-08-27T22:18:15.861Z,18.30
2022-08-27T22:28:22.418Z,20.10
2022-08-27T22:38:28.831Z,19.80
2022-08-27T22:48:35.186Z,18.70
2022-08-27T22:58:45.903Z,19.70
2022-08-27T23:08:52.727Z,19.70
2022-08-27T23:18:59.111Z,20.10
2022-08-27T23:29:06.488Z,21.00
2022-08-27T23:39:12.946Z,19.80
2022-08-27T23:49:19.251Z,18.90
2022-08-27T23:59:29.917Z,20.70
